sensor_id;sensor_type;location;lat;lon;timestamp;P1;durP1;ratioP1;P2;durP2;ratioP2
13571;SDS011;6857;53.484;10.216;2024-03-08T00:00:14;18.77;;;10.17;;
13571;SDS011;6857;53.484;10.216;2024-03-08T00:02:44;16.80;;;10.07;;
13571;SDS011;6857;53.484;10.216;2024-03-08T00:05:11;18.80;;;10.30;;
13571;SDS011;6857;53.484;10.216;2024-03-08T00:07:37;22.90;;;10.60;;
13571;SDS011;6857;53.484;10.216;2024-03-08T00:10:04;22.17;;;11.03;;
13571;SDS011;6857;53.484;10.216;2024-03-08T00:12:31;18.23;;;9.97;;
13571;SDS011;6857;53.484;10.216;2024-03-08T00:14:57;16.13;;;10.20;;
13571;SDS011;6857;53.484;10.216;2024-03-08T00:17:22;17.90;;;9.93;;
13571;SDS011;6857;53.484;10.216;2024-03-08T00:19:48;19.20;;;10.23;;
13571;SDS011;6857;53.484;10.216;2024-03-08T00:22:15;19.17;;;10.77;;
13571;SDS011;6857;53.484;10.216;2024-03-08T00:24:41;18.77;;;9.93;;
13571;SDS011;6857;53.484;10.216;2024-03-08T00:27:07;17.87;;;9.80;;
13571;SDS011;6857;53.484;10.216;2024-03-08T00:29:33;18.10;;;9.90;;
13571;SDS011;6857;53.484;10.216;2024-03-08T00:31:59;18.60;;;9.13;;
13571;SDS011;6857;53.484;10.216;2024-03-08T00:34:25;17.60;;;10.07;;
13571;SDS011;6857;53.484;10.216;2024-03-08T00:36:51;17.77;;;10.47;;
13571;SDS011;6857;53.484;10.216;2024-03-08T00:39:17;19.17;;;10.50;;
13571;SDS011;6857;53.484;10.216;2024-03-08T00:41:45;17.80;;;10.83;;
13571;SDS011;6857;53.484;10.216;2024-03-08T00:44:10;18.10;;;9.83;;
13571;SDS011;6857;53.484;10.216;2024-03-08T00:46:36;17.00;;;10.07;;
13571;SDS011;6857;53.484;10.216;2024-03-08T00:49:03;19.57;;;10.83;;
13571;SDS011;6857;53.484;10.216;2024-03-08T00:51:28;18.43;;;9.83;;
13571;SDS011;6857;53.484;10.216;2024-03-08T00:53:54;19.83;;;9.97;;
13571;SDS011;6857;53.484;10.216;2024-03-08T00:56:19;16.43;;;10.10;;
13571;SDS011;6857;53.484;10.216;2024-03-08T00:58:45;16.13;;;10.17;;
13571;SDS011;6857;53.484;10.216;2024-03-08T01:01:12;19.63;;;10.47;;
13571;SDS011;6857;53.484;10.216;2024-03-08T01:03:41;21.13;;;10.03;;
13571;SDS011;6857;53.484;10.216;2024-03-08T01:06:08;17.70;;;10.57;;
13571;SDS011;6857;53.484;10.216;2024-03-08T01:08:34;18.80;;;9.83;;
13571;SDS011;6857;53.484;10.216;2024-03-08T01:10:59;18.70;;;10.10;;
13571;SDS011;6857;53.484;10.216;2024-03-08T01:13:25;18.33;;;10.30;;
13571;SDS011;6857;53.484;10.216;2024-03-08T01:15:51;18.93;;;10.23;;
13571;SDS011;6857;53.484;10.216;2024-03-08T01:18:16;14.33;;;9.40;;
13571;SDS011;6857;53.484;10.216;2024-03-08T01:20:42;19.90;;;10.47;;
13571;SDS011;6857;53.484;10.216;2024-03-08T01:23:07;19.33;;;9.97;;
13571;SDS011;6857;53.484;10.216;2024-03-08T01:25:33;18.17;;;10.03;;
13571;SDS011;6857;53.484;10.216;2024-03-08T01:27:59;19.67;;;10.37;;
13571;SDS011;6857;53.484;10.216;2024-03-08T01:30:24;16.83;;;9.83;;
13571;SDS011;6857;53.484;10.216;2024-03-08T01:32:50;16.87;;;10.03;;
13571;SDS011;6857;53.484;10.216;2024-03-08T01:35:15;19.27;;;10.00;;
13571;SDS011;6857;53.484;10.216;2024-03-08T01:37:41;18.30;;;10.23;;
13571;SDS011;6857;53.484;10.216;2024-03-08T01:40:07;18.23;;;10.00;;
13571;SDS011;6857;53.484;10.216;2024-03-08T01:42:33;20.53;;;9.50;;
13571;SDS011;6857;53.484;10.216;2024-03-08T01:45:02;17.87;;;10.53;;
13571;SDS011;6857;53.484;10.216;2024-03-08T01:47:29;18.13;;;10.13;;
13571;SDS011;6857;53.484;10.216;2024-03-08T01:49:57;19.30;;;10.53;;
13571;SDS011;6857;53.484;10.216;2024-03-08T01:52:26;19.10;;;11.00;;
13571;SDS011;6857;53.484;10.216;2024-03-08T01:54:53;19.90;;;9.37;;
13571;SDS011;6857;53.484;10.216;2024-03-08T01:57:19;17.50;;;10.30;;
13571;SDS011;6857;53.484;10.216;2024-03-08T01:59:45;23.73;;;10.30;;
13571;SDS011;6857;53.484;10.216;2024-03-08T02:02:11;20.20;;;10.90;;
13571;SDS011;6857;53.484;10.216;2024-03-08T02:04:42;21.13;;;11.03;;
13571;SDS011;6857;53.484;10.216;2024-03-08T02:07:09;21.00;;;11.10;;
13571;SDS011;6857;53.484;10.216;2024-03-08T02:09:35;20.20;;;11.40;;
13571;SDS011;6857;53.484;10.216;2024-03-08T02:12:02;21.20;;;10.57;;
13571;SDS011;6857;53.484;10.216;2024-03-08T02:14:28;22.83;;;10.77;;
13571;SDS011;6857;53.484;10.216;2024-03-08T02:16:53;19.03;;;11.10;;
13571;SDS011;6857;53.484;10.216;2024-03-08T02:19:19;21.67;;;11.27;;
13571;SDS011;6857;53.484;10.216;2024-03-08T02:21:45;18.90;;;10.67;;
13571;SDS011;6857;53.484;10.216;2024-03-08T02:24:12;19.27;;;10.40;;
13571;SDS011;6857;53.484;10.216;2024-03-08T02:26:38;19.27;;;10.70;;
13571;SDS011;6857;53.484;10.216;2024-03-08T02:29:03;18.60;;;10.10;;
13571;SDS011;6857;53.484;10.216;2024-03-08T02:31:30;20.17;;;10.60;;
13571;SDS011;6857;53.484;10.216;2024-03-08T02:33:55;20.67;;;10.30;;
13571;SDS011;6857;53.484;10.216;2024-03-08T02:36:21;19.40;;;10.67;;
13571;SDS011;6857;53.484;10.216;2024-03-08T02:38:46;22.40;;;10.73;;
13571;SDS011;6857;53.484;10.216;2024-03-08T02:41:12;21.73;;;10.97;;
13571;SDS011;6857;53.484;10.216;2024-03-08T02:43:38;22.13;;;10.93;;
13571;SDS011;6857;53.484;10.216;2024-03-08T02:46:03;21.20;;;10.70;;
13571;SDS011;6857;53.484;10.216;2024-03-08T02:48:30;22.00;;;10.57;;
13571;SDS011;6857;53.484;10.216;2024-03-08T02:50:55;18.57;;;10.40;;
13571;SDS011;6857;53.484;10.216;2024-03-08T02:53:21;19.50;;;10.27;;
13571;SDS011;6857;53.484;10.216;2024-03-08T02:55:47;19.77;;;10.43;;
13571;SDS011;6857;53.484;10.216;2024-03-08T02:58:12;19.97;;;10.67;;
13571;SDS011;6857;53.484;10.216;2024-03-08T03:00:39;23.77;;;12.23;;
13571;SDS011;6857;53.484;10.216;2024-03-08T03:03:05;20.60;;;10.10;;
13571;SDS011;6857;53.484;10.216;2024-03-08T03:05:32;19.40;;;10.47;;
13571;SDS011;6857;53.484;10.216;2024-03-08T03:07:58;18.77;;;11.10;;
13571;SDS011;6857;53.484;10.216;2024-03-08T03:10:24;19.10;;;10.13;;
13571;SDS011;6857;53.484;10.216;2024-03-08T03:12:50;22.73;;;10.67;;
13571;SDS011;6857;53.484;10.216;2024-03-08T03:15:16;22.00;;;11.00;;
13571;SDS011;6857;53.484;10.216;2024-03-08T03:17:49;23.70;;;11.33;;
13571;SDS011;6857;53.484;10.216;2024-03-08T03:20:18;22.07;;;11.83;;
13571;SDS011;6857;53.484;10.216;2024-03-08T03:22:51;21.47;;;11.43;;
13571;SDS011;6857;53.484;10.216;2024-03-08T03:25:17;24.53;;;11.77;;
13571;SDS011;6857;53.484;10.216;2024-03-08T03:27:48;20.77;;;10.97;;
13571;SDS011;6857;53.484;10.216;2024-03-08T03:30:14;22.37;;;11.83;;
13571;SDS011;6857;53.484;10.216;2024-03-08T03:32:46;21.83;;;11.03;;
13571;SDS011;6857;53.484;10.216;2024-03-08T03:35:13;20.97;;;11.27;;
13571;SDS011;6857;53.484;10.216;2024-03-08T03:37:40;20.73;;;12.03;;
13571;SDS011;6857;53.484;10.216;2024-03-08T03:40:08;25.80;;;12.03;;
13571;SDS011;6857;53.484;10.216;2024-03-08T03:42:35;22.47;;;11.47;;
13571;SDS011;6857;53.484;10.216;2024-03-08T03:45:03;21.77;;;11.37;;
13571;SDS011;6857;53.484;10.216;2024-03-08T03:47:30;20.97;;;11.33;;
13571;SDS011;6857;53.484;10.216;2024-03-08T03:49:56;20.87;;;11.17;;
13571;SDS011;6857;53.484;10.216;2024-03-08T03:52:26;25.40;;;11.17;;
13571;SDS011;6857;53.484;10.216;2024-03-08T03:54:52;22.13;;;11.63;;
13571;SDS011;6857;53.484;10.216;2024-03-08T03:57:17;22.57;;;11.33;;
13571;SDS011;6857;53.484;10.216;2024-03-08T03:59:43;21.13;;;11.13;;
13571;SDS011;6857;53.484;10.216;2024-03-08T04:02:09;23.53;;;12.73;;
13571;SDS011;6857;53.484;10.216;2024-03-08T04:04:34;21.33;;;10.73;;
13571;SDS011;6857;53.484;10.216;2024-03-08T04:07:00;22.33;;;11.17;;
13571;SDS011;6857;53.484;10.216;2024-03-08T04:09:27;24.07;;;12.17;;
13571;SDS011;6857;53.484;10.216;2024-03-08T04:11:52;19.77;;;10.70;;
13571;SDS011;6857;53.484;10.216;2024-03-08T04:14:20;22.43;;;11.60;;
13571;SDS011;6857;53.484;10.216;2024-03-08T04:16:46;21.37;;;11.83;;
13571;SDS011;6857;53.484;10.216;2024-03-08T04:19:13;24.40;;;11.40;;
13571;SDS011;6857;53.484;10.216;2024-03-08T04:21:38;24.00;;;11.57;;
13571;SDS011;6857;53.484;10.216;2024-03-08T04:24:04;22.00;;;11.07;;
13571;SDS011;6857;53.484;10.216;2024-03-08T04:26:30;23.87;;;11.63;;
13571;SDS011;6857;53.484;10.216;2024-03-08T04:28:56;21.63;;;11.43;;
13571;SDS011;6857;53.484;10.216;2024-03-08T04:31:22;23.50;;;11.47;;
13571;SDS011;6857;53.484;10.216;2024-03-08T04:33:47;20.10;;;11.50;;
13571;SDS011;6857;53.484;10.216;2024-03-08T04:36:13;20.23;;;10.73;;
13571;SDS011;6857;53.484;10.216;2024-03-08T04:38:39;22.67;;;11.60;;
13571;SDS011;6857;53.484;10.216;2024-03-08T04:41:06;22.83;;;12.03;;
13571;SDS011;6857;53.484;10.216;2024-03-08T04:43:31;27.80;;;11.33;;
13571;SDS011;6857;53.484;10.216;2024-03-08T04:45:57;24.13;;;10.67;;
13571;SDS011;6857;53.484;10.216;2024-03-08T04:48:23;22.67;;;11.47;;
13571;SDS011;6857;53.484;10.216;2024-03-08T04:50:51;24.47;;;11.57;;
13571;SDS011;6857;53.484;10.216;2024-03-08T04:53:18;26.00;;;11.87;;
13571;SDS011;6857;53.484;10.216;2024-03-08T04:55:44;23.17;;;11.87;;
13571;SDS011;6857;53.484;10.216;2024-03-08T04:58:10;20.67;;;11.23;;
13571;SDS011;6857;53.484;10.216;2024-03-08T05:00:35;23.07;;;11.97;;
13571;SDS011;6857;53.484;10.216;2024-03-08T05:03:01;22.80;;;11.93;;
13571;SDS011;6857;53.484;10.216;2024-03-08T05:05:26;24.07;;;12.03;;
13571;SDS011;6857;53.484;10.216;2024-03-08T05:07:54;26.43;;;12.50;;
13571;SDS011;6857;53.484;10.216;2024-03-08T05:10:19;28.27;;;13.83;;
13571;SDS011;6857;53.484;10.216;2024-03-08T05:12:45;21.30;;;11.40;;
13571;SDS011;6857;53.484;10.216;2024-03-08T05:15:10;25.40;;;11.37;;
13571;SDS011;6857;53.484;10.216;2024-03-08T05:17:36;21.73;;;11.90;;
13571;SDS011;6857;53.484;10.216;2024-03-08T05:20:02;23.63;;;11.97;;
13571;SDS011;6857;53.484;10.216;2024-03-08T05:22:28;24.20;;;12.07;;
13571;SDS011;6857;53.484;10.216;2024-03-08T05:24:54;22.23;;;11.63;;
13571;SDS011;6857;53.484;10.216;2024-03-08T05:27:20;23.03;;;11.10;;
13571;SDS011;6857;53.484;10.216;2024-03-08T05:29:46;25.23;;;12.83;;
13571;SDS011;6857;53.484;10.216;2024-03-08T05:32:11;23.97;;;11.90;;
13571;SDS011;6857;53.484;10.216;2024-03-08T05:34:37;21.83;;;12.27;;
13571;SDS011;6857;53.484;10.216;2024-03-08T05:37:03;22.73;;;11.70;;
13571;SDS011;6857;53.484;10.216;2024-03-08T05:39:29;26.70;;;11.27;;
13571;SDS011;6857;53.484;10.216;2024-03-08T05:41:54;21.57;;;11.50;;
13571;SDS011;6857;53.484;10.216;2024-03-08T05:44:21;24.57;;;12.13;;
13571;SDS011;6857;53.484;10.216;2024-03-08T05:46:46;22.00;;;11.83;;
13571;SDS011;6857;53.484;10.216;2024-03-08T05:49:12;26.10;;;12.23;;
13571;SDS011;6857;53.484;10.216;2024-03-08T05:51:38;22.47;;;11.33;;
13571;SDS011;6857;53.484;10.216;2024-03-08T05:54:05;25.37;;;10.87;;
13571;SDS011;6857;53.484;10.216;2024-03-08T05:56:40;20.23;;;10.60;;
13571;SDS011;6857;53.484;10.216;2024-03-08T05:59:09;23.77;;;12.30;;
13571;SDS011;6857;53.484;10.216;2024-03-08T06:01:34;22.07;;;11.80;;
13571;SDS011;6857;53.484;10.216;2024-03-08T06:04:01;24.03;;;12.03;;
13571;SDS011;6857;53.484;10.216;2024-03-08T06:06:28;23.73;;;11.43;;
13571;SDS011;6857;53.484;10.216;2024-03-08T06:08:53;24.10;;;11.93;;
13571;SDS011;6857;53.484;10.216;2024-03-08T06:11:21;23.40;;;11.63;;
13571;SDS011;6857;53.484;10.216;2024-03-08T06:13:47;25.00;;;11.60;;
13571;SDS011;6857;53.484;10.216;2024-03-08T06:16:14;27.33;;;12.97;;
13571;SDS011;6857;53.484;10.216;2024-03-08T06:18:39;26.60;;;13.40;;
13571;SDS011;6857;53.484;10.216;2024-03-08T06:21:06;29.53;;;13.73;;
13571;SDS011;6857;53.484;10.216;2024-03-08T06:23:32;24.77;;;13.23;;
13571;SDS011;6857;53.484;10.216;2024-03-08T06:25:58;24.10;;;13.20;;
13571;SDS011;6857;53.484;10.216;2024-03-08T06:28:24;30.50;;;13.30;;
13571;SDS011;6857;53.484;10.216;2024-03-08T06:30:49;22.97;;;12.57;;
13571;SDS011;6857;53.484;10.216;2024-03-08T06:33:16;27.97;;;12.87;;
13571;SDS011;6857;53.484;10.216;2024-03-08T06:35:42;26.47;;;13.20;;
13571;SDS011;6857;53.484;10.216;2024-03-08T06:38:07;30.60;;;13.33;;
13571;SDS011;6857;53.484;10.216;2024-03-08T06:40:33;27.00;;;13.30;;
13571;SDS011;6857;53.484;10.216;2024-03-08T06:42:58;32.00;;;14.70;;
13571;SDS011;6857;53.484;10.216;2024-03-08T06:45:24;30.47;;;14.40;;
13571;SDS011;6857;53.484;10.216;2024-03-08T06:47:50;27.40;;;13.50;;
13571;SDS011;6857;53.484;10.216;2024-03-08T06:50:16;30.13;;;14.60;;
13571;SDS011;6857;53.484;10.216;2024-03-08T06:52:42;29.03;;;14.57;;
13571;SDS011;6857;53.484;10.216;2024-03-08T06:55:07;26.70;;;13.53;;
13571;SDS011;6857;53.484;10.216;2024-03-08T06:57:36;28.33;;;13.90;;
13571;SDS011;6857;53.484;10.216;2024-03-08T07:00:04;26.87;;;13.40;;
13571;SDS011;6857;53.484;10.216;2024-03-08T07:02:30;24.93;;;13.23;;
13571;SDS011;6857;53.484;10.216;2024-03-08T07:04:57;26.87;;;13.20;;
13571;SDS011;6857;53.484;10.216;2024-03-08T07:07:23;22.00;;;12.67;;
13571;SDS011;6857;53.484;10.216;2024-03-08T07:09:48;26.30;;;12.87;;
13571;SDS011;6857;53.484;10.216;2024-03-08T07:12:14;25.00;;;12.60;;
13571;SDS011;6857;53.484;10.216;2024-03-08T07:14:39;30.47;;;14.73;;
13571;SDS011;6857;53.484;10.216;2024-03-08T07:17:06;33.07;;;14.87;;
13571;SDS011;6857;53.484;10.216;2024-03-08T07:19:34;33.67;;;14.80;;
13571;SDS011;6857;53.484;10.216;2024-03-08T07:21:59;31.07;;;14.50;;
13571;SDS011;6857;53.484;10.216;2024-03-08T07:24:25;25.67;;;14.60;;
13571;SDS011;6857;53.484;10.216;2024-03-08T07:27:06;29.70;;;15.37;;
13571;SDS011;6857;53.484;10.216;2024-03-08T07:29:34;29.20;;;14.83;;
13571;SDS011;6857;53.484;10.216;2024-03-08T07:32:00;26.50;;;14.93;;
13571;SDS011;6857;53.484;10.216;2024-03-08T07:34:26;28.10;;;14.03;;
13571;SDS011;6857;53.484;10.216;2024-03-08T07:36:51;30.00;;;14.37;;
13571;SDS011;6857;53.484;10.216;2024-03-08T07:39:17;27.10;;;15.07;;
13571;SDS011;6857;53.484;10.216;2024-03-08T07:41:42;26.10;;;14.20;;
13571;SDS011;6857;53.484;10.216;2024-03-08T07:44:08;26.93;;;14.23;;
13571;SDS011;6857;53.484;10.216;2024-03-08T07:46:34;26.63;;;15.03;;
13571;SDS011;6857;53.484;10.216;2024-03-08T07:48:59;26.07;;;15.03;;
13571;SDS011;6857;53.484;10.216;2024-03-08T07:51:25;25.23;;;15.60;;
13571;SDS011;6857;53.484;10.216;2024-03-08T07:53:51;27.63;;;15.70;;
13571;SDS011;6857;53.484;10.216;2024-03-08T07:56:16;27.20;;;14.77;;
13571;SDS011;6857;53.484;10.216;2024-03-08T07:58:43;27.80;;;14.93;;
13571;SDS011;6857;53.484;10.216;2024-03-08T08:01:16;26.77;;;14.27;;
13571;SDS011;6857;53.484;10.216;2024-03-08T08:03:45;25.57;;;14.37;;
13571;SDS011;6857;53.484;10.216;2024-03-08T08:06:11;30.90;;;16.37;;
13571;SDS011;6857;53.484;10.216;2024-03-08T08:08:43;28.80;;;15.20;;
13571;SDS011;6857;53.484;10.216;2024-03-08T08:11:09;24.33;;;14.43;;
13571;SDS011;6857;53.484;10.216;2024-03-08T08:13:36;25.93;;;14.87;;
13571;SDS011;6857;53.484;10.216;2024-03-08T08:16:02;29.63;;;15.40;;
13571;SDS011;6857;53.484;10.216;2024-03-08T08:18:28;28.17;;;14.67;;
13571;SDS011;6857;53.484;10.216;2024-03-08T08:20:54;26.90;;;14.97;;
13571;SDS011;6857;53.484;10.216;2024-03-08T08:23:20;25.87;;;15.53;;
13571;SDS011;6857;53.484;10.216;2024-03-08T08:25:46;29.83;;;14.83;;
13571;SDS011;6857;53.484;10.216;2024-03-08T08:28:15;26.47;;;14.70;;
13571;SDS011;6857;53.484;10.216;2024-03-08T08:30:42;30.23;;;16.67;;
13571;SDS011;6857;53.484;10.216;2024-03-08T08:33:08;31.43;;;15.67;;
13571;SDS011;6857;53.484;10.216;2024-03-08T08:35:35;34.27;;;19.27;;
13571;SDS011;6857;53.484;10.216;2024-03-08T08:38:01;32.00;;;16.90;;
13571;SDS011;6857;53.484;10.216;2024-03-08T08:40:28;41.00;;;22.03;;
13571;SDS011;6857;53.484;10.216;2024-03-08T08:42:55;47.73;;;22.30;;
13571;SDS011;6857;53.484;10.216;2024-03-08T08:45:22;28.83;;;14.67;;
13571;SDS011;6857;53.484;10.216;2024-03-08T08:47:48;26.23;;;14.73;;
13571;SDS011;6857;53.484;10.216;2024-03-08T08:50:15;29.20;;;16.47;;
13571;SDS011;6857;53.484;10.216;2024-03-08T08:52:48;28.70;;;16.70;;
13571;SDS011;6857;53.484;10.216;2024-03-08T08:55:17;26.67;;;14.27;;
13571;SDS011;6857;53.484;10.216;2024-03-08T08:57:46;26.53;;;16.23;;
13571;SDS011;6857;53.484;10.216;2024-03-08T09:00:21;26.27;;;15.33;;
13571;SDS011;6857;53.484;10.216;2024-03-08T09:02:49;25.47;;;15.27;;
13571;SDS011;6857;53.484;10.216;2024-03-08T09:05:16;26.00;;;14.77;;
13571;SDS011;6857;53.484;10.216;2024-03-08T09:07:42;24.60;;;14.30;;
13571;SDS011;6857;53.484;10.216;2024-03-08T09:10:09;26.60;;;13.87;;
13571;SDS011;6857;53.484;10.216;2024-03-08T09:12:37;24.83;;;14.63;;
13571;SDS011;6857;53.484;10.216;2024-03-08T09:15:06;23.20;;;13.97;;
13571;SDS011;6857;53.484;10.216;2024-03-08T09:17:38;24.53;;;14.53;;
13571;SDS011;6857;53.484;10.216;2024-03-08T09:20:08;23.30;;;13.77;;
13571;SDS011;6857;53.484;10.216;2024-03-08T09:22:35;22.87;;;13.57;;
13571;SDS011;6857;53.484;10.216;2024-03-08T09:25:01;24.63;;;14.73;;
13571;SDS011;6857;53.484;10.216;2024-03-08T09:27:27;23.20;;;13.63;;
13571;SDS011;6857;53.484;10.216;2024-03-08T09:29:53;22.83;;;14.00;;
13571;SDS011;6857;53.484;10.216;2024-03-08T09:32:19;22.33;;;13.50;;
13571;SDS011;6857;53.484;10.216;2024-03-08T09:34:45;26.57;;;14.17;;
13571;SDS011;6857;53.484;10.216;2024-03-08T09:37:11;23.67;;;14.13;;
13571;SDS011;6857;53.484;10.216;2024-03-08T09:39:37;21.70;;;13.30;;
13571;SDS011;6857;53.484;10.216;2024-03-08T09:42:03;22.23;;;13.47;;
13571;SDS011;6857;53.484;10.216;2024-03-08T09:44:28;22.67;;;13.63;;
13571;SDS011;6857;53.484;10.216;2024-03-08T09:46:54;24.87;;;14.13;;
13571;SDS011;6857;53.484;10.216;2024-03-08T09:49:20;24.30;;;14.50;;
13571;SDS011;6857;53.484;10.216;2024-03-08T09:51:46;20.67;;;13.03;;
13571;SDS011;6857;53.484;10.216;2024-03-08T09:54:12;35.23;;;15.70;;
13571;SDS011;6857;53.484;10.216;2024-03-08T09:56:38;24.37;;;13.33;;
13571;SDS011;6857;53.484;10.216;2024-03-08T09:59:09;23.57;;;13.57;;
13571;SDS011;6857;53.484;10.216;2024-03-08T10:01:55;22.80;;;13.67;;
13571;SDS011;6857;53.484;10.216;2024-03-08T10:04:21;27.90;;;14.57;;
13571;SDS011;6857;53.484;10.216;2024-03-08T10:06:47;22.50;;;13.63;;
13571;SDS011;6857;53.484;10.216;2024-03-08T10:09:13;23.23;;;14.20;;
13571;SDS011;6857;53.484;10.216;2024-03-08T10:11:42;21.37;;;14.63;;
13571;SDS011;6857;53.484;10.216;2024-03-08T10:14:11;24.07;;;14.30;;
13571;SDS011;6857;53.484;10.216;2024-03-08T10:16:39;24.43;;;15.10;;
13571;SDS011;6857;53.484;10.216;2024-03-08T10:19:05;23.27;;;14.07;;
13571;SDS011;6857;53.484;10.216;2024-03-08T10:21:34;22.63;;;14.20;;
13571;SDS011;6857;53.484;10.216;2024-03-08T10:24:00;23.97;;;13.37;;
13571;SDS011;6857;53.484;10.216;2024-03-08T10:26:28;24.33;;;13.97;;
13571;SDS011;6857;53.484;10.216;2024-03-08T10:28:53;29.80;;;14.47;;
13571;SDS011;6857;53.484;10.216;2024-03-08T10:31:19;25.20;;;14.07;;
13571;SDS011;6857;53.484;10.216;2024-03-08T10:33:48;23.43;;;13.77;;
13571;SDS011;6857;53.484;10.216;2024-03-08T10:36:14;21.93;;;13.40;;
13571;SDS011;6857;53.484;10.216;2024-03-08T10:38:43;23.50;;;13.70;;
13571;SDS011;6857;53.484;10.216;2024-03-08T10:41:12;24.77;;;13.40;;
13571;SDS011;6857;53.484;10.216;2024-03-08T10:44:26;42.83;;;23.40;;
13571;SDS011;6857;53.484;10.216;2024-03-08T10:49:12;21.27;;;13.17;;
13571;SDS011;6857;53.484;10.216;2024-03-08T10:51:42;22.50;;;12.67;;
13571;SDS011;6857;53.484;10.216;2024-03-08T10:54:09;19.57;;;13.00;;
13571;SDS011;6857;53.484;10.216;2024-03-08T10:56:36;22.77;;;13.60;;
13571;SDS011;6857;53.484;10.216;2024-03-08T10:59:02;32.93;;;18.67;;
13571;SDS011;6857;53.484;10.216;2024-03-08T11:01:29;19.47;;;12.97;;
13571;SDS011;6857;53.484;10.216;2024-03-08T11:03:55;21.97;;;12.67;;
13571;SDS011;6857;53.484;10.216;2024-03-08T11:06:22;22.50;;;13.47;;
13571;SDS011;6857;53.484;10.216;2024-03-08T11:08:55;21.30;;;12.10;;
13571;SDS011;6857;53.484;10.216;2024-03-08T11:11:23;20.33;;;11.97;;
13571;SDS011;6857;53.484;10.216;2024-03-08T11:13:52;22.03;;;12.63;;
13571;SDS011;6857;53.484;10.216;2024-03-08T11:18:59;21.03;;;12.40;;
13571;SDS011;6857;53.484;10.216;2024-03-08T11:21:35;17.57;;;11.40;;
13571;SDS011;6857;53.484;10.216;2024-03-08T11:24:12;18.17;;;11.17;;
13571;SDS011;6857;53.484;10.216;2024-03-08T11:26:39;22.53;;;11.70;;
13571;SDS011;6857;53.484;10.216;2024-03-08T11:31:52;21.60;;;11.60;;
13571;SDS011;6857;53.484;10.216;2024-03-08T11:34:35;18.87;;;11.27;;
13571;SDS011;6857;53.484;10.216;2024-03-08T11:37:03;19.33;;;11.53;;
13571;SDS011;6857;53.484;10.216;2024-03-08T11:39:30;19.43;;;11.90;;
13571;SDS011;6857;53.484;10.216;2024-03-08T11:41:56;21.37;;;12.03;;
13571;SDS011;6857;53.484;10.216;2024-03-08T11:44:26;19.73;;;11.40;;
13571;SDS011;6857;53.484;10.216;2024-03-08T11:46:52;16.80;;;11.23;;
13571;SDS011;6857;53.484;10.216;2024-03-08T11:49:18;18.93;;;11.90;;
13571;SDS011;6857;53.484;10.216;2024-03-08T11:51:45;19.03;;;11.80;;
13571;SDS011;6857;53.484;10.216;2024-03-08T11:54:11;21.10;;;12.53;;
13571;SDS011;6857;53.484;10.216;2024-03-08T11:56:40;20.27;;;11.67;;
13571;SDS011;6857;53.484;10.216;2024-03-08T11:59:10;22.17;;;11.80;;
13571;SDS011;6857;53.484;10.216;2024-03-08T12:01:37;19.90;;;12.33;;
13571;SDS011;6857;53.484;10.216;2024-03-08T12:04:03;22.57;;;11.63;;
13571;SDS011;6857;53.484;10.216;2024-03-08T12:06:37;19.70;;;11.33;;
13571;SDS011;6857;53.484;10.216;2024-03-08T12:09:04;21.37;;;12.27;;
13571;SDS011;6857;53.484;10.216;2024-03-08T12:11:34;17.63;;;11.13;;
13571;SDS011;6857;53.484;10.216;2024-03-08T12:14:00;18.10;;;11.13;;
13571;SDS011;6857;53.484;10.216;2024-03-08T12:16:26;20.37;;;12.33;;
13571;SDS011;6857;53.484;10.216;2024-03-08T12:18:52;16.87;;;10.70;;
13571;SDS011;6857;53.484;10.216;2024-03-08T12:21:21;17.17;;;11.13;;
13571;SDS011;6857;53.484;10.216;2024-03-08T12:23:51;18.13;;;11.17;;
13571;SDS011;6857;53.484;10.216;2024-03-08T12:26:34;20.00;;;11.90;;
13571;SDS011;6857;53.484;10.216;2024-03-08T12:29:14;17.17;;;11.17;;
13571;SDS011;6857;53.484;10.216;2024-03-08T12:31:42;17.90;;;12.20;;
13571;SDS011;6857;53.484;10.216;2024-03-08T12:34:07;15.67;;;10.57;;
13571;SDS011;6857;53.484;10.216;2024-03-08T12:36:34;18.57;;;10.60;;
13571;SDS011;6857;53.484;10.216;2024-03-08T12:39:01;18.93;;;10.97;;
13571;SDS011;6857;53.484;10.216;2024-03-08T12:41:29;18.37;;;11.10;;
13571;SDS011;6857;53.484;10.216;2024-03-08T12:43:54;17.60;;;11.33;;
13571;SDS011;6857;53.484;10.216;2024-03-08T12:46:21;17.37;;;10.33;;
13571;SDS011;6857;53.484;10.216;2024-03-08T12:48:47;16.67;;;10.20;;
13571;SDS011;6857;53.484;10.216;2024-03-08T12:51:13;16.07;;;10.63;;
13571;SDS011;6857;53.484;10.216;2024-03-08T12:53:40;17.50;;;10.77;;
13571;SDS011;6857;53.484;10.216;2024-03-08T12:56:09;17.47;;;10.93;;
13571;SDS011;6857;53.484;10.216;2024-03-08T12:58:35;18.73;;;11.87;;
13571;SDS011;6857;53.484;10.216;2024-03-08T13:01:01;17.67;;;10.70;;
13571;SDS011;6857;53.484;10.216;2024-03-08T13:03:35;18.27;;;11.90;;
13571;SDS011;6857;53.484;10.216;2024-03-08T13:06:02;17.07;;;11.37;;
13571;SDS011;6857;53.484;10.216;2024-03-08T13:08:35;29.40;;;18.00;;
13571;SDS011;6857;53.484;10.216;2024-03-08T13:11:02;16.00;;;10.37;;
13571;SDS011;6857;53.484;10.216;2024-03-08T13:13:28;19.03;;;10.13;;
13571;SDS011;6857;53.484;10.216;2024-03-08T13:15:54;17.67;;;10.27;;
13571;SDS011;6857;53.484;10.216;2024-03-08T13:18:21;15.33;;;10.20;;
13571;SDS011;6857;53.484;10.216;2024-03-08T13:20:47;16.97;;;10.03;;
13571;SDS011;6857;53.484;10.216;2024-03-08T13:23:16;15.77;;;10.30;;
13571;SDS011;6857;53.484;10.216;2024-03-08T13:25:42;22.90;;;12.33;;
13571;SDS011;6857;53.484;10.216;2024-03-08T13:28:08;17.00;;;11.03;;
13571;SDS011;6857;53.484;10.216;2024-03-08T13:30:35;15.30;;;10.37;;
13571;SDS011;6857;53.484;10.216;2024-03-08T13:33:01;16.27;;;10.70;;
13571;SDS011;6857;53.484;10.216;2024-03-08T13:35:29;19.23;;;11.27;;
13571;SDS011;6857;53.484;10.216;2024-03-08T13:37:55;14.53;;;10.80;;
13571;SDS011;6857;53.484;10.216;2024-03-08T13:40:21;19.77;;;10.93;;
13571;SDS011;6857;53.484;10.216;2024-03-08T13:42:47;17.23;;;11.23;;
13571;SDS011;6857;53.484;10.216;2024-03-08T13:45:14;16.97;;;10.97;;
13571;SDS011;6857;53.484;10.216;2024-03-08T13:47:42;17.30;;;11.33;;
13571;SDS011;6857;53.484;10.216;2024-03-08T13:50:09;17.90;;;11.57;;
13571;SDS011;6857;53.484;10.216;2024-03-08T13:52:41;17.20;;;11.27;;
13571;SDS011;6857;53.484;10.216;2024-03-08T13:55:08;17.27;;;11.37;;
13571;SDS011;6857;53.484;10.216;2024-03-08T13:57:34;17.33;;;11.27;;
13571;SDS011;6857;53.484;10.216;2024-03-08T14:00:00;16.43;;;10.77;;
13571;SDS011;6857;53.484;10.216;2024-03-08T14:02:26;14.87;;;10.07;;
13571;SDS011;6857;53.484;10.216;2024-03-08T14:04:54;17.33;;;11.07;;
13571;SDS011;6857;53.484;10.216;2024-03-08T14:07:20;15.40;;;10.87;;
13571;SDS011;6857;53.484;10.216;2024-03-08T14:09:45;19.03;;;12.60;;
13571;SDS011;6857;53.484;10.216;2024-03-08T14:12:11;16.83;;;12.40;;
13571;SDS011;6857;53.484;10.216;2024-03-08T14:14:37;15.83;;;11.23;;
13571;SDS011;6857;53.484;10.216;2024-03-08T14:17:02;15.17;;;10.63;;
13571;SDS011;6857;53.484;10.216;2024-03-08T14:19:29;16.93;;;10.70;;
13571;SDS011;6857;53.484;10.216;2024-03-08T14:21:58;17.77;;;11.80;;
13571;SDS011;6857;53.484;10.216;2024-03-08T14:24:24;14.97;;;11.00;;
13571;SDS011;6857;53.484;10.216;2024-03-08T14:26:50;16.67;;;10.83;;